| time (UTC) | temp C | wind direction | speed KPH | gust KPH | rain 1hr cm | rain 24hr cm | rain mn cm | humidity % | barometer mb |
| 20260901201015 | 15 | 269 | 0.0 | 0.0 | 0.05 | 0.99 | 0.05 | 98 | 1010.7 |
| 20260901200513 | 15 | 268 | 0.0 | 12.9 | 0.03 | 0.99 | 0.03 | 97 | 1010.9 |
| 20260901194530 | 17 | 225 | 8.0 | 22.5 | 0.05 | 1.02 | 0.05 | 84 | 1010.0 |
| 20260901194029 | 18 | 259 | 14.5 | 22.5 | 0.03 | 0.99 | 0.03 | 77 | 1010.0 |
| 20260901193529 | 20 | 229 | 11.3 | 20.9 | 0.03 | 0.99 | 0.03 | 81 | 1010.0 |
| 20260901193028 | 21 | 236 | 0.0 | 1.6 | 0.00 | 0.97 | 0.00 | 79 | 1009.9 |
| 20260901192531 | 21 | 259 | 0.0 | 1.6 | 0.00 | 0.97 | 0.00 | 73 | 1009.9 |
| 20260901192036 | 22 | 285 | 0.0 | 0.0 | 0.00 | 0.97 | 0.00 | 72 | 1009.9 |
| 20260901191513 | 22 | 309 | 0.0 | 0.0 | 0.00 | 0.97 | 0.00 | 72 | 1010.0 |
| 20260901191015 | 22 | 284 | 0.0 | 0.0 | 0.00 | 0.97 | 0.00 | 73 | 1010.0 |
| 20260901190507 | 22 | 264 | 0.0 | 0.0 | 0.00 | 0.97 | 0.00 | 71 | 1010.1 |
| 20260901190010 | 23 | 263 | 0.0 | 0.0 | 0.00 | 0.97 | 0.00 | 70 | 1010.2 |
| 20260901185508 | 23 | 326 | 0.0 | 0.0 | 0.00 | 0.97 | 0.00 | 68 | 1010.2 |
| 20260901185006 | 23 | 349 | 0.0 | 0.0 | 0.00 | 0.97 | 0.00 | 67 | 1010.4 |
| 20260901184553 | 23 | 300 | 0.0 | 1.6 | 0.00 | 0.97 | 0.00 | 67 | 1010.4 |
| 20260901184047 | 23 | 259 | 0.0 | 1.6 | 0.00 | 0.97 | 0.00 | 72 | 1010.4 |
| 20260901183551 | 23 | 246 | 0.0 | 1.6 | 0.00 | 0.97 | 0.00 | 67 | 1010.5 |
| 20260901183045 | 23 | 304 | 0.0 | 0.0 | 0.00 | 0.97 | 0.00 | 70 | 1010.5 |
| 20260901182546 | 23 | 243 | 0.0 | 0.0 | 0.00 | 0.97 | 0.00 | 72 | 1010.6 |
| 20260901182043 | 23 | 297 | 0.0 | 0.0 | 0.00 | 0.97 | 0.00 | 73 | 1010.7 |
| 20260901181523 | 22 | 253 | 0.0 | 1.6 | 0.00 | 0.97 | 0.00 | 74 | 1010.8 |
| 20260901181022 | 22 | 246 | 0.0 | 1.6 | 0.00 | 0.97 | 0.00 | 75 | 1010.8 |
| 20260901180521 | 22 | 291 | 0.0 | 1.6 | 0.00 | 0.97 | 0.00 | 76 | 1011.0 |
| 20260901180020 | 22 | 256 | 0.0 | 1.6 | 0.00 | 0.97 | 0.00 | 76 | 1011.0 |
| 20260901175520 | 22 | 291 | 0.0 | 1.6 | 0.00 | 0.97 | 0.00 | 75 | 1011.1 |
| 20260901175020 | 21 | 218 | 0.0 | 1.6 | 0.00 | 0.97 | 0.00 | 75 | 1011.2 |
| 20260901174559 | 21 | 253 | 0.0 | 1.6 | 0.00 | 0.97 | 0.00 | 76 | 1011.2 |
| 20260901174100 | 21 | 250 | 0.0 | 1.6 | 0.00 | 0.97 | 0.00 | 78 | 1011.3 |
| 20260901173559 | 21 | 259 | 0.0 | 1.6 | 0.00 | 0.97 | 0.00 | 78 | 1011.5 |
| 20260901173100 | 21 | 273 | 0.0 | 1.6 | 0.00 | 0.97 | 0.00 | 79 | 1011.5 |
| 20260901172600 | 21 | 281 | 0.0 | 1.6 | 0.00 | 0.97 | 0.00 | 80 | 1011.5 |
| 20260901172055 | 21 | 288 | 0.0 | 1.6 | 0.00 | 0.97 | 0.00 | 80 | 1011.6 |
| 20260901171538 | 20 | 257 | 0.0 | 1.6 | 0.00 | 0.97 | 0.00 | 80 | 1011.6 |
| 20260901171035 | 21 | 340 | 0.0 | 0.0 | 0.00 | 0.97 | 0.00 | 83 | 1011.7 |
| 20260901170536 | 20 | 13 | 0.0 | 0.0 | 0.00 | 0.97 | 0.00 | 84 | 1011.7 |
| 20260901170032 | 20 | 34 | 0.0 | 1.6 | 0.00 | 0.97 | 0.00 | 84 | 1011.8 |
| 20260901165530 | 20 | 229 | 0.0 | 1.6 | 0.00 | 0.97 | 0.00 | 86 | 1011.9 |
| 20260901165029 | 20 | 250 | 0.0 | 1.6 | 0.00 | 0.97 | 0.00 | 88 | 1011.9 |
| 20260901164510 | 19 | 240 | 0.0 | 1.6 | 0.00 | 0.97 | 0.00 | 88 | 1012.0 |
| 20260901164008 | 18 | 266 | 0.0 | 0.0 | 0.00 | 0.97 | 0.00 | 88 | 1012.1 |
| 20260901163507 | 18 | 253 | 0.0 | 0.0 | 0.00 | 0.97 | 0.00 | 89 | 1012.2 |
| 20260901163006 | 18 | 253 | 0.0 | 0.0 | 0.00 | 0.97 | 0.00 | 90 | 1012.2 |
| 20260901162504 | 18 | 250 | 0.0 | 0.0 | 0.00 | 0.97 | 0.00 | 90 | 1012.2 |
| 20260901162004 | 18 | 250 | 0.0 | 0.0 | 0.00 | 0.97 | 0.00 | 91 | 1012.3 |
| 20260901161547 | 18 | 250 | 0.0 | 0.0 | 0.00 | 0.97 | 0.00 | 91 | 1012.3 |
| 20260901161047 | 18 | 252 | 0.0 | 0.0 | 0.00 | 0.97 | 0.00 | 92 | 1012.3 |
| 20260901160545 | 18 | 253 | 0.0 | 0.0 | 0.00 | 0.97 | 0.00 | 95 | 1012.4 |
| 20260901160052 | 17 | 252 | 0.0 | 0.0 | 0.00 | 0.97 | 0.00 | 98 | 1012.5 |
| 20260901155541 | 17 | 252 | 0.0 | 0.0 | 0.00 | 0.97 | 0.00 | 100 | 1012.5 |
| 20260901155042 | 17 | 252 | 0.0 | 0.0 | 0.00 | 0.97 | 0.00 | 100 | 1012.5 |
| 20260901154524 | 17 | 253 | 0.0 | 0.0 | 0.00 | 0.97 | 0.00 | 100 | 1012.6 |
| 20260901154019 | 17 | 253 | 0.0 | 0.0 | 0.00 | 0.97 | 0.00 | 100 | 1012.6 |
| 20260901153519 | 17 | 253 | 0.0 | 0.0 | 0.00 | 0.97 | 0.00 | 100 | 1012.6 |
| 20260901153019 | 16 | 253 | 0.0 | 0.0 | 0.00 | 0.97 | 0.97 | 100 | 1012.6 |
| 20260901152520 | 16 | 253 | 0.0 | 0.0 | 0.00 | 0.97 | 0.97 | 100 | 1012.7 |
| 20260901152018 | 16 | 253 | 0.0 | 0.0 | 0.00 | 0.97 | 0.97 | 100 | 1012.7 |
| 20260901151618 | 15 | 253 | 0.0 | 0.0 | 0.00 | 0.97 | 0.97 | 100 | 1012.7 |
| 20260901151100 | 15 | 253 | 0.0 | 0.0 | 0.00 | 0.97 | 0.97 | 100 | 1012.6 |
| 20260901150601 | 15 | 253 | 0.0 | 0.0 | 0.00 | 0.97 | 0.97 | 100 | 1012.6 |
| 20260901150103 | 15 | 253 | 0.0 | 0.0 | 0.00 | 0.97 | 0.97 | 100 | 1012.7 |
| 20260901145559 | 15 | 253 | 0.0 | 0.0 | 0.00 | 0.97 | 0.97 | 100 | 1012.7 |
| 20260901145058 | 15 | 253 | 0.0 | 0.0 | 0.00 | 0.97 | 0.97 | 100 | 1012.7 |
| 20260901144559 | 14 | 254 | 0.0 | 0.0 | 0.00 | 0.97 | 0.97 | 100 | 1012.7 |
| 20260901144041 | 14 | 250 | 0.0 | 0.0 | 0.00 | 0.97 | 0.97 | 100 | 1012.6 |
| 20260901143542 | 14 | 250 | 0.0 | 0.0 | 0.00 | 0.97 | 0.97 | 100 | 1012.6 |
| 20260901143042 | 14 | 250 | 0.0 | 0.0 | 0.00 | 0.97 | 0.97 | 100 | 1012.6 |
| 20260901142541 | 14 | 250 | 0.0 | 0.0 | 0.00 | 0.97 | 0.97 | 100 | 1012.6 |
| 20260901142042 | 14 | 250 | 0.0 | 0.0 | 0.00 | 0.97 | 0.97 | 100 | 1012.5 |
| 20260901141541 | 14 | 252 | 0.0 | 0.0 | 0.00 | 0.97 | 0.97 | 100 | 1012.4 |
| 20260901141028 | 13 | 251 | 0.0 | 0.0 | 0.00 | 0.97 | 0.97 | 100 | 1012.5 |
| 20260901140527 | 13 | 251 | 0.0 | 0.0 | 0.00 | 0.97 | 0.97 | 100 | 1012.5 |
| 20260901140028 | 13 | 252 | 0.0 | 0.0 | 0.00 | 0.97 | 0.97 | 100 | 1012.6 |
| 20260901135529 | 13 | 250 | 0.0 | 0.0 | 0.00 | 0.97 | 0.97 | 100 | 1012.7 |
| 20260901135028 | 13 | 250 | 0.0 | 0.0 | 0.00 | 0.97 | 0.97 | 100 | 1012.6 |
| 20260901134548 | 13 | 250 | 0.0 | 0.0 | 0.00 | 0.97 | 0.97 | 100 | 1012.4 |
| 20260901134026 | 13 | 250 | 0.0 | 0.0 | 0.00 | 0.97 | 0.97 | 100 | 1012.5 |
| 20260901133526 | 13 | 250 | 0.0 | 0.0 | 0.00 | 0.97 | 0.97 | 100 | 1012.5 |
| 20260901133026 | 13 | 250 | 0.0 | 0.0 | 0.00 | 0.97 | 0.97 | 100 | 1012.4 |
| 20260901132526 | 13 | 250 | 0.0 | 0.0 | 0.00 | 0.97 | 0.97 | 100 | 1012.4 |
| 20260901132026 | 13 | 250 | 0.0 | 0.0 | 0.00 | 0.97 | 0.97 | 100 | 1012.3 |
| 20260901131526 | -17 | 0.0 | 0.0 | 0.00 | 0.97 | 0.97 | 1012.3 | ||
| 20260901131024 | -17 | 0.0 | 0.0 | 0.00 | 0.97 | 0.97 | 1012.3 | ||
| 20260901130525 | -17 | 0.0 | 0.0 | 0.00 | 0.97 | 0.97 | 1012.2 | ||
| 20260901130021 | -17 | 0.0 | 0.0 | 0.00 | 0.97 | 0.97 | 1012.3 | ||
| 20260901125520 | -17 | 0.0 | 0.0 | 0.00 | 0.97 | 0.97 | 1012.2 | ||
| 20260901125018 | -17 | 0.0 | 0.0 | 0.00 | 0.97 | 0.97 | 1012.1 | ||
| 20260901124522 | -17 | 0.0 | 0.0 | 0.00 | 0.97 | 0.97 | 1012.1 | ||
| 20260901124014 | -17 | 0.0 | 0.0 | 0.00 | 0.97 | 0.97 | 1012.1 | ||
| 20260901123513 | -17 | 0.0 | 0.0 | 0.00 | 0.97 | 0.97 | 1012.0 | ||
| 20260901123013 | -17 | 0.0 | 0.0 | 0.00 | 0.97 | 0.97 | 1012.0 | ||
| 20260901122510 | -17 | 0.0 | 0.0 | 0.00 | 0.97 | 0.97 | 1012.0 | ||
| 20260901122012 | -17 | 0.0 | 0.0 | 0.00 | 0.97 | 0.97 | 1012.0 | ||
| 20260901121507 | -17 | 0.0 | 0.0 | 0.00 | 0.97 | 0.97 | 1012.0 | ||
| 20260901121054 | -17 | 0.0 | 0.0 | 0.00 | 0.97 | 0.97 | 1012.1 | ||
| 20260901120553 | -17 | 0.0 | 0.0 | 0.00 | 0.97 | 0.97 | 1012.1 | ||
| 20260901120100 | -17 | 0.0 | 0.0 | 0.00 | 0.97 | 0.97 | 1011.9 | ||
| 20260901115550 | -17 | 0.0 | 0.0 | 0.00 | 0.97 | 0.97 | 1011.8 | ||
| 20260901115049 | -17 | 0.0 | 0.0 | 0.00 | 0.97 | 0.97 | 1011.8 | ||
| 20260901114548 | -17 | 0.0 | 0.0 | 0.00 | 0.97 | 0.97 | 1011.9 | ||
| 20260901114045 | -17 | 0.0 | 0.0 | 0.00 | 0.97 | 0.97 | 1011.8 | ||
| 20260901113544 | -17 | 0.0 | 0.0 | 0.00 | 0.97 | 0.97 | 1011.9 | ||
| 20260901113107 | -17 | 0.0 | 0.0 | 0.00 | 0.97 | 0.97 | 1011.8 | ||
| 20260901112540 | -17 | 0.0 | 0.0 | 0.00 | 0.97 | 0.97 | 1011.7 | ||
| 20260901112040 | -17 | 0.0 | 0.0 | 0.00 | 0.97 | 0.97 | 1011.7 | ||
| 20260901111540 | -17 | 0.0 | 0.0 | 0.00 | 0.97 | 0.97 | 1011.7 | ||
| 20260901111037 | -17 | 0.0 | 0.0 | 0.00 | 0.97 | 0.97 | 1011.7 | ||
| 20260901110535 | -17 | 0.0 | 0.0 | 0.00 | 0.97 | 0.97 | 1011.6 | ||
| 20260901110034 | -17 | 0.0 | 0.0 | 0.00 | 0.97 | 0.97 | 1011.6 | ||
| 20260901105533 | -17 | 0.0 | 0.0 | 0.00 | 0.97 | 0.97 | 1011.7 | ||
| 20260901105031 | -17 | 0.0 | 0.0 | 0.00 | 0.97 | 0.97 | 1011.5 | ||
| 20260901104532 | -17 | 0.0 | 0.0 | 0.00 | 0.97 | 0.97 | 1011.7 | ||
| 20260901104029 | -17 | 0.0 | 0.0 | 0.00 | 0.97 | 0.97 | 1011.7 | ||
| 20260901103526 | -17 | 0.0 | 0.0 | 0.00 | 0.97 | 0.97 | 1011.7 | ||
| 20260901103025 | -17 | 0.0 | 0.0 | 0.00 | 0.97 | 0.97 | 1011.7 | ||
| 20260901102524 | -17 | 0.0 | 0.0 | 0.00 | 0.97 | 0.97 | 1011.7 | ||
| 20260901102022 | -17 | 0.0 | 0.0 | 0.00 | 0.97 | 0.97 | 1011.8 | ||
| 20260901101527 | -17 | 0.0 | 0.0 | 0.00 | 0.97 | 0.97 | 1011.8 | ||
| 20260901101002 | -17 | 0.0 | 0.0 | 0.00 | 0.97 | 0.97 | 1011.8 | ||
| 20260901100501 | 14 | 250 | 0.0 | 0.0 | 0.00 | 0.97 | 0.97 | 100 | 1011.7 |
| 20260901100002 | 14 | 250 | 0.0 | 0.0 | 0.00 | 0.97 | 0.97 | 100 | 1011.8 |
| 20260901095601 | 14 | 250 | 0.0 | 0.0 | 0.00 | 0.97 | 0.97 | 100 | 1011.7 |
| 20260901095101 | 14 | 250 | 0.0 | 0.0 | 0.00 | 0.97 | 0.97 | 100 | 1011.7 |
| 20260901094600 | 14 | 250 | 0.0 | 0.0 | 0.00 | 0.97 | 0.97 | 100 | 1011.7 |
| 20260901094043 | 14 | 250 | 0.0 | 0.0 | 0.00 | 0.97 | 0.97 | 100 | 1011.6 |
| 20260901093546 | 14 | 250 | 0.0 | 0.0 | 0.00 | 0.97 | 0.97 | 100 | 1011.5 |
| 20260901093042 | 14 | 250 | 0.0 | 0.0 | 0.00 | 0.97 | 0.97 | 100 | 1011.5 |
| 20260901092542 | 14 | 250 | 0.0 | 0.0 | 0.00 | 0.97 | 0.97 | 100 | 1011.5 |
| 20260901092046 | 14 | 250 | 0.0 | 0.0 | 0.00 | 0.97 | 0.97 | 100 | 1011.5 |
| 20260901091542 | 14 | 250 | 0.0 | 0.0 | 0.00 | 0.97 | 0.97 | 100 | 1011.4 |
| 20260901091024 | 14 | 251 | 0.0 | 0.0 | 0.00 | 0.97 | 0.97 | 100 | 1011.7 |
| 20260901090524 | 14 | 250 | 0.0 | 0.0 | 0.00 | 0.97 | 0.97 | 100 | 1011.8 |
| 20260901090024 | 14 | 250 | 0.0 | 0.0 | 0.00 | 0.97 | 0.97 | 100 | 1011.7 |
| 20260901085524 | 14 | 250 | 0.0 | 0.0 | 0.00 | 0.97 | 0.97 | 100 | 1011.7 |
| 20260901085024 | 14 | 250 | 0.0 | 0.0 | 0.00 | 0.97 | 0.97 | 100 | 1011.8 |
| 20260901084531 | 14 | 250 | 0.0 | 0.0 | 0.00 | 0.97 | 0.97 | 100 | 1011.8 |
| 20260901084010 | 14 | 250 | 0.0 | 0.0 | 0.00 | 0.97 | 0.97 | 100 | 1011.8 |
| 20260901083509 | 14 | 250 | 0.0 | 0.0 | 0.00 | 0.97 | 0.97 | 100 | 1011.8 |
| 20260901083007 | 14 | 250 | 0.0 | 0.0 | 0.00 | 0.97 | 0.97 | 100 | 1011.8 |
| 20260901082506 | 14 | 253 | 0.0 | 0.0 | 0.00 | 0.97 | 0.97 | 100 | 1011.8 |
| 20260901082006 | 14 | 253 | 0.0 | 1.6 | 0.00 | 0.97 | 0.97 | 100 | 1011.8 |
| 20260901081506 | 14 | 251 | 0.0 | 1.6 | 0.00 | 0.97 | 0.97 | 100 | 1011.9 |
| 20260901081106 | 14 | 256 | 0.0 | 0.0 | 0.00 | 0.97 | 0.97 | 100 | 1011.9 |
| 20260901080548 | 14 | 256 | 0.0 | 0.0 | 0.00 | 0.97 | 0.97 | 100 | 1011.9 |
| 20260901080048 | 14 | 256 | 0.0 | 0.0 | 0.00 | 0.97 | 0.97 | 100 | 1011.9 |
| 20260901075548 | 14 | 255 | 0.0 | 0.0 | 0.00 | 0.97 | 0.97 | 100 | 1011.8 |
| 20260901075050 | 14 | 250 | 0.0 | 0.0 | 0.00 | 0.97 | 0.97 | 100 | 1011.8 |
| 20260901074547 | 14 | 243 | 0.0 | 0.0 | 0.00 | 0.97 | 0.97 | 100 | 1011.9 |
| 20260901074047 | 14 | 66 | 0.0 | 0.0 | 0.00 | 0.97 | 0.97 | 100 | 1011.9 |
| 20260901073530 | 14 | 65 | 0.0 | 0.0 | 0.00 | 0.97 | 0.97 | 100 | 1011.9 |
| 20260901073032 | 14 | 65 | 0.0 | 0.0 | 0.00 | 0.97 | 0.97 | 100 | 1011.9 |
| 20260901072532 | 14 | 65 | 0.0 | 0.0 | 0.00 | 0.97 | 0.97 | 100 | 1011.9 |
| 20260901072029 | 14 | 65 | 0.0 | 0.0 | 0.00 | 0.97 | 0.97 | 100 | 1012.0 |
| 20260901071530 | 14 | 65 | 0.0 | 0.0 | 0.03 | 0.97 | 0.97 | 100 | 1012.0 |
| 20260901071033 | 14 | 67 | 0.0 | 0.0 | 0.03 | 0.97 | 0.97 | 100 | 1012.0 |
| 20260901070511 | 14 | 66 | 0.0 | 0.0 | 0.03 | 0.97 | 0.97 | 100 | 1011.9 |
| 20260901070012 | 14 | 66 | 0.0 | 0.0 | 0.03 | 0.97 | 0.97 | 100 | 1011.9 |
| 20260901065511 | 14 | 66 | 0.0 | 0.0 | 0.03 | 0.97 | 0.97 | 100 | 1011.9 |
| 20260901065011 | 14 | 66 | 0.0 | 0.0 | 0.03 | 0.97 | 0.97 | 100 | 1012.0 |
| 20260901064511 | 14 | 67 | 0.0 | 0.0 | 0.05 | 0.97 | 0.97 | 100 | 1011.9 |
| 20260901064011 | 14 | 65 | 0.0 | 0.0 | 0.05 | 0.97 | 0.97 | 100 | 1012.1 |
| 20260901063552 | 14 | 108 | 0.0 | 1.6 | 0.05 | 0.97 | 0.97 | 100 | 1012.2 |
| 20260901063053 | 14 | 74 | 0.0 | 1.6 | 0.05 | 0.97 | 0.97 | 100 | 1012.2 |
| 20260901062552 | 14 | 68 | 0.0 | 3.2 | 0.05 | 0.97 | 0.97 | 100 | 1012.2 |
| 20260901062057 | 14 | 70 | 0.0 | 3.2 | 0.08 | 0.97 | 0.97 | 100 | 1012.3 |
| 20260901061553 | 14 | 61 | 0.0 | 1.6 | 0.05 | 0.94 | 0.94 | 100 | 1012.4 |
| 20260901061053 | 14 | 60 | 0.0 | 1.6 | 0.08 | 0.94 | 0.94 | 100 | 1012.4 |
| 20260901060537 | 14 | 80 | 0.0 | 0.0 | 0.08 | 0.94 | 0.94 | 99 | 1012.6 |
| 20260901060034 | 14 | 77 | 0.0 | 0.0 | 0.10 | 0.94 | 0.94 | 99 | 1012.7 |
| 20260901055533 | 14 | 79 | 0.0 | 0.0 | 0.13 | 0.94 | 0.94 | 99 | 1012.8 |
| 20260901055035 | 14 | 82 | 0.0 | 0.0 | 0.15 | 0.94 | 0.94 | 99 | 1012.8 |
| 20260901054534 | 14 | 65 | 0.0 | 0.0 | 0.13 | 0.91 | 0.91 | 99 | 1013.0 |
| 20260901054035 | 14 | 58 | 0.0 | 0.0 | 0.15 | 0.91 | 0.91 | 99 | 1013.0 |
| 20260901053518 | 14 | 49 | 0.0 | 0.0 | 0.15 | 0.89 | 0.89 | 99 | 1013.2 |
| 20260901053019 | 14 | 55 | 0.0 | 0.0 | 0.15 | 0.99 | 0.89 | 99 | 1013.2 |
| 20260901052518 | 14 | 76 | 0.0 | 0.0 | 0.18 | 0.99 | 0.89 | 99 | 1013.3 |
| 20260901052014 | 14 | 77 | 0.0 | 0.0 | 0.18 | 0.99 | 0.89 | 99 | 1013.5 |
| 20260901051513 | 15 | 60 | 0.0 | 0.0 | 0.23 | 0.99 | 0.89 | 99 | 1013.5 |
| 20260901051013 | 15 | 63 | 0.0 | 0.0 | 0.20 | 0.97 | 0.86 | 99 | 1013.6 |
| 20260901050502 | 15 | 53 | 0.0 | 1.6 | 0.23 | 0.97 | 0.86 | 99 | 1013.6 |
| 20260901050002 | 15 | 53 | 0.0 | 1.6 | 0.20 | 0.94 | 0.84 | 99 | 1013.6 |
| 20260901045500 | 15 | 61 | 0.0 | 1.6 | 0.20 | 0.91 | 0.81 | 99 | 1013.6 |
| 20260901045003 | 15 | 56 | 0.0 | 0.0 | 0.20 | 0.89 | 0.79 | 99 | 1013.7 |
| 20260901044502 | 15 | 23 | 0.0 | 0.0 | 0.20 | 0.89 | 0.79 | 99 | 1013.6 |
| 20260901044001 | 15 | 54 | 0.0 | 0.0 | 0.20 | 0.86 | 0.76 | 99 | 1013.7 |
| 20260901043601 | 15 | 53 | 0.0 | 0.0 | 0.20 | 0.86 | 0.76 | 99 | 1013.7 |
| 20260901043108 | 15 | 66 | 0.0 | 0.0 | 0.18 | 0.84 | 0.71 | 99 | 1013.7 |
| 20260901042600 | 15 | 294 | 0.0 | 0.0 | 0.15 | 0.81 | 0.71 | 99 | 1013.7 |
| 20260901042100 | 15 | 293 | 0.0 | 0.0 | 0.15 | 0.79 | 0.71 | 99 | 1013.6 |
| 20260901041559 | 15 | 250 | 0.0 | 0.0 | 0.13 | 0.79 | 0.69 | 99 | 1013.6 |
| 20260901041058 | 15 | 290 | 0.0 | 0.0 | 0.10 | 0.76 | 0.66 | 99 | 1013.7 |
| 20260901040558 | 15 | 256 | 0.0 | 0.0 | 0.08 | 0.71 | 0.64 | 99 | 1013.5 |
| 20260901040058 | 15 | 256 | 0.0 | 0.0 | 0.08 | 0.71 | 0.64 | 99 | 1013.4 |
| 20260901035600 | 15 | 256 | 0.0 | 0.0 | 0.05 | 0.71 | 0.61 | 99 | 1013.2 |
| 20260901035055 | 15 | 256 | 0.0 | 0.0 | 0.05 | 0.71 | 0.61 | 99 | 1013.1 |
| 20260901034602 | 15 | 256 | 0.0 | 0.0 | 0.05 | 0.69 | 0.58 | 99 | 1013.1 |
| 20260901034100 | 15 | 255 | 0.0 | 0.0 | 0.05 | 0.66 | 0.56 | 99 | 1013.1 |
| 20260901033556 | 15 | 262 | 0.0 | 0.0 | 0.05 | 0.66 | 0.56 | 99 | 1012.9 |
| 20260901033053 | 15 | 245 | 0.0 | 1.6 | 0.08 | 0.66 | 0.56 | 99 | 1012.8 |
| 20260901032556 | 15 | 249 | 0.0 | 1.6 | 0.08 | 0.66 | 0.56 | 99 | 1012.7 |
| 20260901032101 | 15 | 259 | 0.0 | 1.6 | 0.08 | 0.66 | 0.56 | 99 | 1012.5 |
| 20260901031554 | 15 | 254 | 0.0 | 1.6 | 0.08 | 0.66 | 0.56 | 99 | 1012.4 |
| 20260901031050 | 15 | 269 | 0.0 | 1.6 | 0.10 | 0.66 | 0.56 | 99 | 1012.2 |
| 20260901030531 | 15 | 225 | 0.0 | 1.6 | 0.10 | 0.66 | 0.56 | 99 | 1012.0 |
| 20260901030032 | 15 | 257 | 0.0 | 0.0 | 0.15 | 0.66 | 0.56 | 99 | 1011.9 |
| 20260901025532 | 15 | 257 | 0.0 | 0.0 | 0.23 | 0.66 | 0.56 | 99 | 1011.7 |
| 20260901025032 | 15 | 257 | 0.0 | 1.6 | 0.30 | 0.64 | 0.53 | 99 | 1011.5 |
| 20260901024531 | 15 | 188 | 0.0 | 1.6 | 0.33 | 0.61 | 0.51 | 99 | 1011.4 |
| 20260901024031 | 15 | 231 | 0.0 | 1.6 | 0.33 | 0.61 | 0.51 | 99 | 1011.3 |
| 20260901023514 | 15 | 74 | 0.0 | 6.4 | 0.38 | 0.61 | 0.51 | 99 | 1011.1 |
| 20260901023013 | 15 | 79 | 0.0 | 8.0 | 0.38 | 0.58 | 0.48 | 98 | 1011.0 |
| 20260901022514 | 15 | 110 | 1.6 | 8.0 | 0.38 | 0.58 | 0.48 | 98 | 1010.9 |
| 20260901022019 | 15 | 156 | 0.0 | 3.2 | 0.38 | 0.58 | 0.48 | 98 | 1010.8 |
| 20260901021513 | 15 | 53 | 0.0 | 1.6 | 0.43 | 0.58 | 0.48 | 98 | 1010.8 |
| 20260901021013 | 15 | 74 | 0.0 | 1.6 | 0.43 | 0.56 | 0.46 | 98 | 1010.7 |
| 20260901020557 | 15 | 117 | 0.0 | 1.6 | 0.43 | 0.56 | 0.46 | 98 | 1010.6 |
| 20260901020111 | 15 | 56 | 0.0 | 8.0 | 0.41 | 0.51 | 0.41 | 98 | 1010.4 |
| 20260901015554 | 15 | 101 | 0.0 | 8.0 | 0.33 | 0.43 | 0.33 | 97 | 1010.5 |
| 20260901015058 | 15 | 154 | 1.6 | 8.0 | 0.23 | 0.33 | 0.23 | 97 | 1010.3 |
| 20260901014557 | 15 | 139 | 0.0 | 8.0 | 0.20 | 0.30 | 0.20 | 96 | 1009.9 |
| 20260901014051 | 15 | 49 | 1.6 | 8.0 | 0.18 | 0.28 | 0.18 | 94 | 1009.6 |
| 20260901013533 | 16 | 63 | 0.0 | 12.9 | 0.13 | 0.23 | 0.13 | 92 | 1009.5 |
| 20260901013033 | 16 | 75 | 3.2 | 12.9 | 0.10 | 0.20 | 0.10 | 91 | 1009.4 |
| 20260901012529 | 16 | 89 | 1.6 | 11.3 | 0.10 | 0.20 | 0.10 | 91 | 1009.2 |
| 20260901012032 | 16 | 86 | 1.6 | 11.3 | 0.10 | 0.20 | 0.10 | 90 | 1009.0 |
| 20260901011535 | 16 | 54 | 1.6 | 8.0 | 0.05 | 0.15 | 0.05 | 89 | 1009.0 |
| 20260901011026 | 17 | 73 | 1.6 | 8.0 | 0.05 | 0.15 | 0.05 | 87 | 1008.9 |
| 20260901010512 | 17 | 70 | 0.0 | 8.0 | 0.03 | 0.13 | 0.03 | 85 | 1009.0 |
| 20260901010008 | 17 | 58 | 1.6 | 14.5 | 0.00 | 0.10 | 0.00 | 82 | 1008.8 |
| 20260901005512 | 18 | 76 | 3.2 | 11.3 | 0.00 | 0.10 | 0.00 | 80 | 1008.8 |
| 20260901005008 | 17 | 92 | 3.2 | 12.9 | 0.00 | 0.10 | 0.00 | 80 | 1008.8 |
| 20260901004509 | 17 | 105 | 3.2 | 16.1 | 0.00 | 0.10 | 0.00 | 81 | 1008.7 |
| 20260901004007 | 17 | 61 | 8.0 | 17.7 | 0.00 | 0.10 | 0.00 | 80 | 1008.7 |
| 20260901003607 | 18 | 70 | 6.4 | 20.9 | 0.00 | 0.10 | 0.00 | 79 | 1008.5 |
| 20260901003052 | 18 | 56 | 9.7 | 20.9 | 0.00 | 0.10 | 0.00 | 79 | 1008.3 |
| 20260901002546 | 18 | 74 | 8.0 | 19.3 | 0.00 | 0.10 | 0.00 | 78 | 1008.3 |
| 20260901002046 | 18 | 61 | 3.2 | 17.7 | 0.00 | 0.10 | 0.00 | 78 | 1008.2 |
| 20260901001558 | 18 | 63 | 1.6 | 17.7 | 0.00 | 0.10 | 0.00 | 79 | 1008.1 |
| 20260901001044 | 19 | 72 | 0.0 | 9.7 | 0.00 | 0.10 | 0.00 | 80 | 1008.0 |
| 20260901000545 | 19 | 77 | 0.0 | 1.6 | 0.00 | 0.10 | 0.00 | 80 | 1007.9 |
| 20260901000028 | 20 | 68 | 0.0 | 1.6 | 0.00 | 0.10 | 0.00 | 79 | 1007.8 |
| 20260831235527 | 20 | 70 | 0.0 | 1.6 | 0.00 | 0.10 | 0.00 | 78 | 1007.6 |
| 20260831235027 | 20 | 70 | 0.0 | 1.6 | 0.00 | 0.10 | 0.00 | 76 | 1007.5 |
| 20260831234528 | 20 | 41 | 0.0 | 1.6 | 0.00 | 0.10 | 0.00 | 72 | 1007.4 |
| 20260831234027 | 21 | 23 | 0.0 | 1.6 | 0.00 | 0.10 | 0.00 | 72 | 1007.5 |
| 20260831233526 | 21 | 66 | 0.0 | 6.4 | 0.00 | 0.10 | 0.00 | 70 | 1007.4 |
| 20260831233019 | 20 | 219 | 0.0 | 6.4 | 0.00 | 0.10 | 0.00 | 69 | 1007.1 |
| 20260831232510 | 20 | 203 | 0.0 | 14.5 | 0.00 | 0.10 | 0.00 | 71 | 1007.0 |
| 20260831232009 | 20 | 214 | 1.6 | 20.9 | 0.00 | 0.10 | 0.00 | 70 | 1006.9 |
| 20260831231509 | 21 | 228 | 9.7 | 24.1 | 0.00 | 0.10 | 0.00 | 65 | 1006.9 |
| 20260831231009 | 22 | 226 | 12.9 | 24.1 | 0.00 | 0.10 | 0.00 | 62 | 1006.9 |
| 20260831230508 | 23 | 222 | 0.0 | 1.6 | 0.00 | 0.10 | 0.00 | 59 | 1006.7 |
| 20260831230050 | 23 | 228 | 0.0 | 1.6 | 0.00 | 0.10 | 0.00 | 56 | 1006.6 |
| 20260831225549 | 23 | 283 | 0.0 | 1.6 | 0.00 | 0.10 | 0.00 | 57 | 1006.5 |
| 20260831225051 | 23 | 226 | 0.0 | 1.6 | 0.00 | 0.10 | 0.00 | 57 | 1006.4 |
| 20260831224549 | 23 | 255 | 0.0 | 1.6 | 0.00 | 0.10 | 0.00 | 57 | 1006.6 |
| 20260831224052 | 23 | 236 | 0.0 | 1.6 | 0.00 | 0.10 | 0.00 | 55 | 1006.7 |
| 20260831223549 | 23 | 255 | 0.0 | 1.6 | 0.00 | 0.10 | 0.00 | 57 | 1006.8 |
| 20260831223033 | 23 | 259 | 0.0 | 1.6 | 0.00 | 0.15 | 0.00 | 56 | 1006.7 |
| 20260831222533 | 24 | 257 | 0.0 | 0.0 | 0.00 | 0.15 | 0.00 | 57 | 1006.7 |
| 20260831222030 | 24 | 240 | 0.0 | 0.0 | 0.00 | 0.15 | 0.00 | 55 | 1006.6 |
| 20260831221532 | 24 | 1 | 0.0 | 0.0 | 0.00 | 0.15 | 0.00 | 55 | 1006.5 |
| 20260831221030 | 24 | 239 | 0.0 | 0.0 | 0.00 | 0.15 | 0.00 | 54 | 1006.6 |
| 20260831220530 | 25 | 256 | 0.0 | 1.6 | 0.00 | 0.15 | 0.00 | 56 | 1006.6 |
| 20260831220013 | 25 | 267 | 0.0 | 0.0 | 0.00 | 0.15 | 0.00 | 55 | 1006.6 |
| 20260831215513 | 25 | 255 | 0.0 | 0.0 | 0.00 | 0.15 | 0.00 | 53 | 1006.7 |
| 20260831215012 | 25 | 297 | 0.0 | 1.6 | 0.00 | 0.15 | 0.00 | 52 | 1006.7 |
| 20260831214516 | 25 | 260 | 0.0 | 1.6 | 0.00 | 0.15 | 0.00 | 51 | 1006.8 |
| 20260831214112 | 25 | 47 | 0.0 | 1.6 | 0.00 | 0.15 | 0.00 | 52 | 1006.8 |
| 20260831213511 | 25 | 56 | 0.0 | 0.0 | 0.00 | 0.15 | 0.00 | 50 | 1007.0 |
| 20260831213051 | 26 | 70 | 0.0 | 1.6 | 0.00 | 0.15 | 0.00 | 50 | 1007.0 |
| 20260831212553 | 25 | 60 | 0.0 | 3.2 | 0.00 | 0.15 | 0.00 | 53 | 1007.2 |
| 20260831212050 | 25 | 65 | 0.0 | 6.4 | 0.00 | 0.15 | 0.00 | 51 | 1007.2 |
| 20260831211604 | 26 | 68 | 1.6 | 6.4 | 0.00 | 0.15 | 0.00 | 49 | 1007.3 |
| 20260831211049 | 26 | 239 | 0.0 | 1.6 | 0.00 | 0.15 | 0.00 | 51 | 1007.4 |
| 20260831210551 | 26 | 135 | 0.0 | 1.6 | 0.00 | 0.15 | 0.00 | 51 | 1007.4 |
| 20260831210030 | 25 | 77 | 0.0 | 0.0 | 0.00 | 0.15 | 0.00 | 51 | 1007.7 |
| 20260831205529 | 25 | 20 | 0.0 | 1.6 | 0.00 | 0.15 | 0.00 | 49 | 1007.7 |
| 20260831205029 | 26 | 46 | 0.0 | 1.6 | 0.00 | 0.15 | 0.00 | 48 | 1007.8 |
| 20260831204527 | 25 | 314 | 0.0 | 0.0 | 0.00 | 0.15 | 0.00 | 50 | 1007.9 |
| 20260831204027 | 25 | 82 | 0.0 | 0.0 | 0.00 | 0.15 | 0.00 | 49 | 1008.0 |
| 20260831203525 | 25 | 69 | 0.0 | 0.0 | 0.00 | 0.15 | 0.00 | 48 | 1008.1 |
| 20260831203007 | 25 | 57 | 0.0 | 0.0 | 0.00 | 0.15 | 0.00 | 53 | 1008.3 |
| 20260831202507 | 25 | 284 | 0.0 | 0.0 | 0.00 | 0.15 | 0.00 | 50 | 1008.4 |
| 20260831202005 | 25 | 236 | 0.0 | 0.0 | 0.00 | 0.15 | 0.00 | 50 | 1008.6 |
| 20260831201504 | 25 | 65 | 0.0 | 1.6 | 0.00 | 0.15 | 0.00 | 55 | 1008.7 |